Time;durP1;ratioP1;P1;durP2;ratioP2;P2;SDS_P1;SDS_P2;PMS_P1;PMS_P2;Temp;Humidity;BMP_temperature;BMP_pressure;BME280_temperature;BME280_humidity;BME280_pressure;Samples;Min_cycle;Max_cycle;Signal;HPM_P1;HPM_P2
2022/04/07 00:00:13;;;;;;;0.30;0.20;;;;;;;11.45;92.60;98568.59;5072346;28;20503;-50
2022/04/07 00:02:39;;;;;;;0.30;0.20;;;;;;;11.50;92.18;98574.47;5071291;28;20508;-50
2022/04/07 00:05:06;;;;;;;0.30;0.20;;;;;;;11.57;91.89;98574.03;5065458;28;20447;-50
2022/04/07 00:07:33;;;;;;;0.30;0.20;;;;;;;11.47;92.55;98569.34;5071481;28;20806;-50
2022/04/07 00:10:00;;;;;;;0.30;0.20;;;;;;;11.47;92.24;98562.22;5070992;28;20446;-50
2022/04/07 00:12:26;;;;;;;0.30;0.20;;;;;;;11.53;92.10;98529.09;5072031;28;20450;-50
2022/04/07 00:14:53;;;;;;;0.30;0.20;;;;;;;11.44;92.69;98540.28;5069971;28;20449;-50
2022/04/07 00:17:20;;;;;;;0.40;0.40;;;;;;;11.43;92.73;98528.78;5072111;28;20462;-50
2022/04/07 00:19:47;;;;;;;0.30;0.20;;;;;;;11.42;92.82;98523.56;5072367;28;20826;-50
2022/04/07 00:22:13;;;;;;;0.30;0.20;;;;;;;11.43;92.76;98530.59;5067944;28;20457;-50
2022/04/07 00:24:41;;;;;;;0.30;0.20;;;;;;;11.36;92.43;98522.09;5072437;28;20446;-51
2022/04/07 00:27:08;;;;;;;0.30;0.20;;;;;;;11.38;93.78;98508.75;5071864;28;20500;-50
2022/04/07 00:29:34;;;;;;;0.40;0.40;;;;;;;11.37;93.56;98510.50;5071895;28;20469;-50
2022/04/07 00:32:05;;;;;;;0.47;0.47;;;;;;;11.43;93.05;98511.97;5072175;28;20496;-50
2022/04/07 00:34:32;;;;;;;0.30;0.20;;;;;;;11.33;94.03;98501.00;5070547;28;20442;-50
2022/04/07 00:36:59;;;;;;;0.30;0.20;;;;;;;11.37;94.39;98502.53;5072282;28;20506;-51
2022/04/07 00:39:26;;;;;;;0.30;0.20;;;;;;;11.27;94.78;98506.72;5071700;28;20559;-50
2022/04/07 00:41:53;;;;;;;0.30;0.20;;;;;;;11.30;94.62;98516.31;5071609;28;20454;-50
2022/04/07 00:44:22;;;;;;;0.30;0.20;;;;;;;11.26;95.73;98497.03;5072051;28;20462;-50
2022/04/07 00:46:49;;;;;;;0.30;0.20;;;;;;;11.27;96.06;98499.59;5071838;28;20454;-50
2022/04/07 00:49:16;;;;;;;0.30;0.30;;;;;;;11.37;96.31;98494.56;5071422;28;20883;-51
2022/04/07 00:51:43;;;;;;;0.30;0.20;;;;;;;11.39;96.28;98491.81;5072101;28;20450;-50
2022/04/07 00:54:12;;;;;;;0.30;0.20;;;;;;;11.34;97.32;98484.09;5071463;28;20450;-51
2022/04/07 00:56:41;;;;;;;0.30;0.20;;;;;;;11.31;98.30;98480.78;5073393;28;20865;-50
2022/04/07 00:59:08;;;;;;;0.30;0.20;;;;;;;11.35;99.05;98477.84;5075790;28;20502;-50
2022/04/07 01:01:35;;;;;;;0.30;0.20;;;;;;;11.26;100.00;98465.97;5075726;28;20450;-50
2022/04/07 01:04:02;;;;;;;0.30;0.20;;;;;;;11.21;100.00;98462.72;5076184;28;20457;-52
2022/04/07 01:06:29;;;;;;;0.30;0.20;;;;;;;11.30;100.00;98453.31;5066916;28;20852;-52
2022/04/07 01:08:55;;;;;;;0.30;0.20;;;;;;;11.32;100.00;98453.22;5075205;28;21096;-52
2022/04/07 01:11:26;;;;;;;0.30;0.20;;;;;;;11.31;100.00;98449.72;5076007;28;20458;-52
2022/04/07 01:13:52;;;;;;;0.30;0.20;;;;;;;11.46;99.26;98446.13;5073009;28;20480;-52
2022/04/07 01:16:25;;;;;;;0.30;0.20;;;;;;;11.38;98.79;98456.38;5074489;28;20799;-52
2022/04/07 01:18:51;;;;;;;0.30;0.20;;;;;;;11.39;98.72;98449.25;5075024;28;20512;-52
2022/04/07 01:21:19;;;;;;;0.30;0.20;;;;;;;11.34;99.14;98441.53;5073162;28;20863;-52
2022/04/07 01:24:08;;;;;;;0.30;0.20;;;;;;;11.34;98.90;98444.19;5073926;28;20495;-52
2022/04/07 01:26:39;;;;;;;0.37;0.27;;;;;;;11.24;99.63;98432.44;5075042;28;20442;-52
2022/04/07 01:29:07;;;;;;;0.30;0.20;;;;;;;11.28;100.00;98428.63;5075563;28;20493;-52
2022/04/07 01:31:34;;;;;;;0.30;0.20;;;;;;;11.26;99.49;98431.41;5075046;28;20985;-51
2022/04/07 01:34:03;;;;;;;0.30;0.20;;;;;;;11.35;98.98;98421.13;5075048;28;20450;-52
2022/04/07 01:36:33;;;;;;;0.30;0.20;;;;;;;11.24;100.00;98419.16;5072350;28;20454;-52
2022/04/07 01:39:02;;;;;;;0.30;0.20;;;;;;;11.39;100.00;98423.50;5075161;28;20497;-52
2022/04/07 01:41:28;;;;;;;0.40;0.40;;;;;;;11.17;100.00;98423.13;5075254;28;20483;-52
2022/04/07 01:43:57;;;;;;;0.40;0.30;;;;;;;11.22;100.00;98410.38;5075580;28;20511;-52
2022/04/07 01:46:25;;;;;;;0.30;0.20;;;;;;;11.15;100.00;98417.03;5061609;28;20481;-52
2022/04/07 01:48:54;;;;;;;0.30;0.20;;;;;;;11.04;100.00;98411.50;5074501;28;20474;-52
2022/04/07 01:51:23;;;;;;;0.30;0.20;;;;;;;11.23;100.00;98412.09;5074822;28;20515;-52
2022/04/07 01:53:50;;;;;;;0.30;0.20;;;;;;;11.13;100.00;98406.50;5074823;28;20869;-52
2022/04/07 01:56:18;;;;;;;0.30;0.20;;;;;;;11.15;100.00;98409.91;5074924;28;20458;-53
2022/04/07 01:58:46;;;;;;;0.30;0.20;;;;;;;11.19;100.00;98402.59;5074574;28;20519;-51
2022/04/07 02:01:16;;;;;;;0.97;0.97;;;;;;;11.04;100.00;98401.72;5074560;28;20450;-51
2022/04/07 02:03:45;;;;;;;0.30;0.20;;;;;;;11.13;100.00;98393.19;5074054;28;20441;-51
2022/04/07 02:06:12;;;;;;;0.30;0.20;;;;;;;10.95;100.00;98395.16;5064324;28;20865;-52
2022/04/07 02:08:39;;;;;;;0.30;0.20;;;;;;;10.94;100.00;98397.91;5073077;28;21198;-51
2022/04/07 02:11:06;;;;;;;0.30;0.20;;;;;;;11.02;100.00;98402.78;5074852;28;20445;-52
2022/04/07 02:13:33;;;;;;;0.30;0.20;;;;;;;10.92;100.00;98397.16;5071755;28;20451;-51
2022/04/07 02:16:01;;;;;;;0.30;0.20;;;;;;;10.84;100.00;98396.78;5074710;28;20450;-51
2022/04/07 02:18:28;;;;;;;0.30;0.20;;;;;;;10.65;100.00;98383.72;5072821;28;20516;-52
2022/04/07 02:20:54;;;;;;;0.30;0.20;;;;;;;10.57;100.00;98381.53;5062592;28;20457;-51
2022/04/07 02:23:21;;;;;;;0.30;0.20;;;;;;;10.55;100.00;98374.56;5069884;28;20446;-52
2022/04/07 02:25:48;;;;;;;0.30;0.20;;;;;;;10.50;100.00;98368.69;5074167;28;20473;-55
2022/04/07 02:28:14;;;;;;;0.30;0.20;;;;;;;10.53;100.00;98372.00;5074308;28;20466;-51
2022/04/07 02:30:41;;;;;;;0.30;0.20;;;;;;;10.58;100.00;98371.75;5074412;28;20450;-52
2022/04/07 02:33:07;;;;;;;0.30;0.20;;;;;;;10.57;100.00;98370.91;5073971;28;20488;-52
2022/04/07 02:35:34;;;;;;;0.30;0.20;;;;;;;10.63;100.00;98367.00;5071669;28;20823;-51
2022/04/07 02:38:01;;;;;;;0.30;0.20;;;;;;;10.53;100.00;98361.38;5073946;28;20473;-52
2022/04/07 02:40:27;;;;;;;0.30;0.20;;;;;;;10.55;100.00;98361.28;5073877;28;21008;-52
2022/04/07 02:42:54;;;;;;;0.30;0.20;;;;;;;10.56;100.00;98349.75;5074293;28;20449;-53
2022/04/07 02:45:21;;;;;;;0.30;0.20;;;;;;;10.58;100.00;98353.16;5073791;28;20457;-53
2022/04/07 02:47:47;;;;;;;0.30;0.20;;;;;;;10.63;100.00;98343.97;5074012;28;20474;-52
2022/04/07 02:50:14;;;;;;;0.30;0.20;;;;;;;10.58;100.00;98345.19;5073737;28;20450;-51
2022/04/07 02:52:41;;;;;;;0.30;0.20;;;;;;;10.65;100.00;98335.88;5073666;28;20511;-53
2022/04/07 02:55:08;;;;;;;0.30;0.20;;;;;;;10.57;100.00;98322.22;5073944;28;20485;-53
2022/04/07 02:57:35;;;;;;;0.30;0.20;;;;;;;10.67;100.00;98326.03;5073519;28;20553;-53
2022/04/07 03:00:06;;;;;;;0.30;0.20;;;;;;;10.65;100.00;98317.28;5073680;28;20521;-53
2022/04/07 03:02:33;;;;;;;0.30;0.20;;;;;;;10.72;100.00;98326.63;5073553;28;20446;-53
2022/04/07 03:05:00;;;;;;;0.30;0.20;;;;;;;10.68;100.00;98325.06;5049636;28;20451;-53
2022/04/07 03:07:26;;;;;;;0.30;0.20;;;;;;;10.73;100.00;98315.03;5070738;28;20446;-51
2022/04/07 03:09:53;;;;;;;0.30;0.20;;;;;;;10.62;100.00;98309.50;5073658;28;20446;-52
2022/04/07 03:12:19;;;;;;;0.30;0.20;;;;;;;10.64;100.00;98312.94;5069325;28;20815;-53
2022/04/07 03:14:46;;;;;;;0.30;0.20;;;;;;;10.71;100.00;98316.09;5064749;28;21019;-53
2022/04/07 03:17:13;;;;;;;0.30;0.20;;;;;;;10.72;100.00;98308.03;5073106;28;20970;-52
2022/04/07 03:19:39;;;;;;;0.30;0.20;;;;;;;10.70;100.00;98307.25;5072769;28;20489;-53
2022/04/07 03:22:06;;;;;;;0.30;0.20;;;;;;;10.70;100.00;98312.56;5068646;28;20938;-53
2022/04/07 03:24:32;;;;;;;0.30;0.20;;;;;;;10.63;100.00;98303.25;5073371;28;20485;-53
2022/04/07 03:27:05;;;;;;;0.30;0.20;;;;;;;10.64;100.00;98303.16;5073305;28;20452;-52
2022/04/07 03:29:32;;;;;;;0.30;0.20;;;;;;;10.67;100.00;98296.78;5073310;28;20490;-53
2022/04/07 03:31:59;;;;;;;0.30;0.20;;;;;;;10.64;100.00;98297.00;5071824;28;20736;-52
2022/04/07 03:34:26;;;;;;;0.30;0.20;;;;;;;10.77;100.00;98273.19;5071272;28;20941;-53
2022/04/07 03:36:52;;;;;;;0.30;0.20;;;;;;;10.75;100.00;98286.56;5071990;28;20817;-52
2022/04/07 03:39:19;;;;;;;0.30;0.20;;;;;;;10.80;100.00;98283.59;5073017;28;20485;-53
2022/04/07 03:41:45;;;;;;;0.30;0.20;;;;;;;10.80;100.00;98284.47;5072717;28;20484;-53
2022/04/07 03:44:13;;;;;;;0.30;0.30;;;;;;;10.76;100.00;98284.75;5072802;28;20458;-53
2022/04/07 03:46:39;;;;;;;0.30;0.20;;;;;;;10.75;100.00;98286.56;5072518;28;20496;-53
2022/04/07 03:49:07;;;;;;;0.30;0.20;;;;;;;10.79;100.00;98292.53;5071497;28;20523;-52
2022/04/07 03:51:34;;;;;;;0.30;0.20;;;;;;;10.76;100.00;98282.94;5046102;28;20454;-53
2022/04/07 03:54:01;;;;;;;0.30;0.20;;;;;;;10.79;100.00;98280.09;5072767;28;20458;-53
2022/04/07 03:56:27;;;;;;;0.30;0.20;;;;;;;10.81;100.00;98275.53;5072717;28;20503;-53
2022/04/07 03:58:55;;;;;;;0.30;0.20;;;;;;;10.78;100.00;98278.41;5072157;28;20490;-52
2022/04/07 04:01:22;;;;;;;0.30;0.20;;;;;;;10.93;100.00;98272.13;5072465;28;20464;-53
2022/04/07 04:03:49;;;;;;;0.30;0.20;;;;;;;10.84;100.00;98266.53;5072227;28;20481;-52
2022/04/07 04:06:15;;;;;;;0.30;0.20;;;;;;;10.83;100.00;98263.03;5063215;28;20541;-53
2022/04/07 04:08:42;;;;;;;0.30;0.20;;;;;;;10.74;100.00;98260.94;5072059;28;20886;-53
2022/04/07 04:11:09;;;;;;;0.30;0.20;;;;;;;10.75;100.00;98267.97;5072345;28;20915;-51
2022/04/07 04:13:35;;;;;;;0.60;0.60;;;;;;;10.74;100.00;98271.56;5069734;28;20447;-52
2022/04/07 04:16:02;;;;;;;0.30;0.20;;;;;;;10.70;100.00;98259.44;5071937;28;20939;-52
2022/04/07 04:18:29;;;;;;;0.30;0.20;;;;;;;10.70;100.00;98243.50;5071860;28;20904;-52
2022/04/07 04:20:56;;;;;;;0.30;0.20;;;;;;;10.57;100.00;98240.72;5072050;28;20935;-53
2022/04/07 04:23:23;;;;;;;0.30;0.20;;;;;;;10.53;100.00;98233.03;5068314;28;20477;-52
2022/04/07 04:25:50;;;;;;;0.30;0.20;;;;;;;10.52;100.00;98237.47;5072086;28;20499;-52
2022/04/07 04:28:16;;;;;;;0.30;0.20;;;;;;;10.57;100.00;98235.41;5071957;28;20502;-53
2022/04/07 04:30:43;;;;;;;0.30;0.20;;;;;;;10.67;100.00;98227.72;5071316;28;20446;-52
2022/04/07 04:33:10;;;;;;;0.30;0.20;;;;;;;10.58;100.00;98218.53;5071618;28;20458;-53
2022/04/07 04:35:37;;;;;;;0.30;0.20;;;;;;;10.59;100.00;98212.25;5070014;28;21017;-52
2022/04/07 04:38:04;;;;;;;0.30;0.20;;;;;;;10.81;100.00;98222.38;5071717;28;20470;-52
2022/04/07 04:40:30;;;;;;;0.30;0.20;;;;;;;10.90;100.00;98207.69;5070915;28;20531;-52
2022/04/07 04:42:58;;;;;;;0.30;0.20;;;;;;;11.13;100.00;98203.56;5070597;28;20454;-53
2022/04/07 04:45:25;;;;;;;0.30;0.20;;;;;;;11.05;100.00;98195.22;5071704;28;20539;-52
2022/04/07 04:47:52;;;;;;;0.30;0.20;;;;;;;11.18;100.00;98189.00;5071988;28;20879;-52
2022/04/07 04:50:19;;;;;;;0.30;0.20;;;;;;;11.07;100.00;98198.63;5072041;28;20454;-52
2022/04/07 04:52:46;;;;;;;0.30;0.20;;;;;;;11.06;100.00;98178.31;5071972;28;20499;-52
2022/04/07 04:55:13;;;;;;;0.30;0.20;;;;;;;11.14;100.00;98170.69;5072342;28;20461;-54
2022/04/07 04:57:40;;;;;;;0.30;0.20;;;;;;;11.17;100.00;98178.47;5071310;28;20466;-52
2022/04/07 05:00:07;;;;;;;0.30;0.20;;;;;;;11.16;100.00;98168.78;5071791;28;20489;-52
2022/04/07 05:02:33;;;;;;;0.30;0.20;;;;;;;11.13;100.00;98172.50;5071592;28;20982;-52
2022/04/07 05:05:00;;;;;;;0.30;0.20;;;;;;;11.24;100.00;98171.81;5065468;28;20447;-52
2022/04/07 05:07:29;;;;;;;0.30;0.20;;;;;;;11.24;100.00;98169.16;5069576;28;20450;-52
2022/04/07 05:09:56;;;;;;;0.30;0.20;;;;;;;11.33;100.00;98170.34;5072138;28;20453;-53
2022/04/07 05:12:23;;;;;;;0.30;0.20;;;;;;;11.20;100.00;98162.31;5071704;28;20446;-52
2022/04/07 05:14:49;;;;;;;0.40;0.40;;;;;;;11.23;100.00;98156.78;5057351;28;20856;-53
2022/04/07 05:17:20;;;;;;;0.30;0.20;;;;;;;11.26;100.00;98151.28;5070213;28;20450;-53
2022/04/07 05:19:47;;;;;;;0.30;0.20;;;;;;;11.42;100.00;98143.13;5071489;28;20559;-53
2022/04/07 05:22:14;;;;;;;0.30;0.20;;;;;;;11.33;100.00;98143.75;5067344;28;20865;-53
2022/04/07 05:24:40;;;;;;;0.30;0.20;;;;;;;11.26;100.00;98148.63;5071813;28;20879;-53
2022/04/07 05:27:07;;;;;;;0.30;0.20;;;;;;;11.35;100.00;98145.34;5070095;28;20453;-52
2022/04/07 05:29:34;;;;;;;0.30;0.20;;;;;;;11.32;100.00;98136.72;5071441;28;20466;-54
2022/04/07 05:32:00;;;;;;;0.30;0.20;;;;;;;11.23;100.00;98131.03;5071314;28;21012;-54
2022/04/07 05:34:30;;;;;;;0.30;0.20;;;;;;;11.38;100.00;98142.50;5069718;28;20449;-53
2022/04/07 05:36:56;;;;;;;0.30;0.20;;;;;;;11.37;100.00;98134.59;5071762;28;20498;-53
2022/04/07 05:39:23;;;;;;;0.30;0.20;;;;;;;11.28;100.00;98133.41;5071223;28;20546;-53
2022/04/07 05:41:50;;;;;;;0.30;0.20;;;;;;;11.36;100.00;98135.56;5071555;28;20861;-52
2022/04/07 05:44:16;;;;;;;0.30;0.20;;;;;;;11.17;100.00;98110.19;5075245;28;20489;-53
2022/04/07 05:46:43;;;;;;;0.30;0.20;;;;;;;11.22;100.00;98116.03;5074605;28;20541;-53
2022/04/07 05:49:11;;;;;;;0.30;0.20;;;;;;;11.12;100.00;98114.13;5074726;28;20470;-53
2022/04/07 05:51:38;;;;;;;0.30;0.20;;;;;;;11.12;100.00;98108.78;5075225;28;20485;-52
2022/04/07 05:54:05;;;;;;;0.30;0.20;;;;;;;11.20;100.00;98104.66;5074649;28;20812;-52
2022/04/07 05:56:32;;;;;;;0.30;0.20;;;;;;;11.15;100.00;98082.84;5074962;28;20450;-53
2022/04/07 05:58:58;;;;;;;0.30;0.20;;;;;;;11.20;100.00;98080.72;5074701;28;20505;-52
2022/04/07 06:01:30;;;;;;;0.40;0.30;;;;;;;11.27;100.00;98083.84;5074562;28;20450;-52
2022/04/07 06:03:57;;;;;;;0.30;0.20;;;;;;;11.11;100.00;98072.53;5074811;28;20450;-52
2022/04/07 06:06:24;;;;;;;0.30;0.20;;;;;;;11.15;100.00;98077.53;5066747;28;20454;-53
2022/04/07 06:08:51;;;;;;;0.30;0.20;;;;;;;11.31;100.00;98069.38;5073974;28;20974;-52
2022/04/07 06:11:18;;;;;;;0.30;0.20;;;;;;;11.26;100.00;98071.50;5074903;28;20548;-53
2022/04/07 06:13:44;;;;;;;0.30;0.20;;;;;;;11.30;100.00;98065.00;5072916;28;21014;-52
2022/04/07 06:16:11;;;;;;;0.30;0.20;;;;;;;11.41;100.00;98059.81;5074640;28;20481;-52
2022/04/07 06:18:38;;;;;;;0.30;0.20;;;;;;;11.40;100.00;98060.78;5074440;28;20465;-53
2022/04/07 06:21:04;;;;;;;0.30;0.20;;;;;;;11.38;100.00;98053.88;5073819;28;20570;-53
2022/04/07 06:23:32;;;;;;;3.30;1.50;;;;;;;11.32;100.00;98060.44;5071140;28;20515;-52
2022/04/07 06:25:59;;;;;;;0.30;0.20;;;;;;;11.30;100.00;98051.72;5074536;28;20449;-53
2022/04/07 06:28:26;;;;;;;0.30;0.20;;;;;;;11.21;100.00;98042.53;5074443;28;20904;-52
2022/04/07 06:30:54;;;;;;;0.30;0.20;;;;;;;11.21;100.00;98050.50;5074436;28;20446;-53
2022/04/07 06:33:21;;;;;;;0.30;0.20;;;;;;;11.17;100.00;98043.72;5074038;28;20453;-53
2022/04/07 06:35:52;;;;;;;0.30;0.20;;;;;;;11.19;100.00;98035.63;5071189;28;20979;-52
2022/04/07 06:38:19;;;;;;;0.30;0.20;;;;;;;10.98;100.00;98033.47;5073993;28;20497;-52
2022/04/07 06:40:45;;;;;;;0.30;0.20;;;;;;;11.14;100.00;98027.97;5073989;28;21018;-53
2022/04/07 06:43:12;;;;;;;0.30;0.20;;;;;;;11.09;100.00;98029.22;5073854;28;20480;-52
2022/04/07 06:45:39;;;;;;;0.30;0.20;;;;;;;11.24;100.00;98025.56;5073677;28;20476;-53
2022/04/07 06:48:06;;;;;;;0.30;0.20;;;;;;;11.25;100.00;98013.97;5073584;28;20473;-52
2022/04/07 06:50:32;;;;;;;0.30;0.20;;;;;;;11.33;100.00;98002.78;5073619;28;20469;-52
2022/04/07 06:53:00;;;;;;;0.30;0.20;;;;;;;11.37;100.00;98007.78;5073891;28;20495;-52
2022/04/07 06:55:28;;;;;;;0.30;0.20;;;;;;;11.44;100.00;97970.97;5073348;28;20537;-53
2022/04/07 06:58:02;;;;;;;0.30;0.20;;;;;;;11.38;100.00;97980.25;5073697;28;20547;-52
2022/04/07 07:00:30;;;;;;;0.30;0.20;;;;;;;11.34;100.00;97972.56;5073437;28;20527;-52
2022/04/07 07:02:59;;;;;;;0.30;0.20;;;;;;;11.47;100.00;97958.31;5070647;22;20496;-56
2022/04/07 07:05:33;;;;;;;0.30;0.20;;;;;;;11.51;100.00;97945.63;5019904;28;20448;-56
2022/04/07 07:08:15;;;;;;;0.30;0.20;;;;;;;11.60;100.00;97945.00;5024836;28;20452;-52
2022/04/07 07:10:45;;;;;;;1.67;1.57;;;;;;;11.60;100.00;97958.31;5027357;28;20502;-53
2022/04/07 07:13:14;;;;;;;0.30;0.20;;;;;;;11.58;100.00;97944.25;5024918;28;20475;-54
2022/04/07 07:15:40;;;;;;;0.30;0.20;;;;;;;11.61;100.00;97943.19;5027529;28;20461;-53
2022/04/07 07:18:07;;;;;;;0.30;0.20;;;;;;;11.60;100.00;97918.38;5019161;28;20448;-54
2022/04/07 07:20:35;;;;;;;0.30;0.20;;;;;;;11.69;100.00;97923.06;5032436;28;20911;-53
2022/04/07 07:23:04;;;;;;;0.30;0.20;;;;;;;11.49;100.00;97918.28;5029541;28;20482;-54
2022/04/07 07:25:31;;;;;;;0.30;0.20;;;;;;;11.48;100.00;97912.13;5007005;28;20932;-54
2022/04/07 07:27:59;;;;;;;0.30;0.20;;;;;;;11.53;100.00;97915.31;5015552;28;20463;-52
2022/04/07 07:30:26;;;;;;;0.30;0.20;;;;;;;11.66;100.00;97920.63;5033578;28;20444;-53
2022/04/07 07:32:58;;;;;;;0.30;0.20;;;;;;;11.62;100.00;97907.63;5033213;28;21004;-54
2022/04/07 07:35:25;;;;;;;0.30;0.20;;;;;;;11.58;100.00;97920.31;5031240;28;20451;-53
2022/04/07 07:37:51;;;;;;;0.30;0.20;;;;;;;11.58;100.00;97897.22;5033096;28;20498;-54
2022/04/07 07:40:21;;;;;;;0.30;0.20;;;;;;;11.53;100.00;97891.38;5033001;28;20494;-54
2022/04/07 07:42:56;;;;;;;0.30;0.20;;;;;;;11.73;100.00;97900.59;5032633;28;20537;-53
2022/04/07 07:45:24;;;;;;;0.30;0.20;;;;;;;11.78;100.00;97897.59;5033084;28;20961;-54
2022/04/07 07:48:12;;;;;;;0.30;0.20;;;;;;;11.81;100.00;97886.78;5032717;28;20451;-54
2022/04/07 07:50:45;;;;;;;0.30;0.20;;;;;;;11.89;100.00;97872.91;5032744;28;20471;-54
2022/04/07 07:53:17;;;;;;;0.30;0.20;;;;;;;11.77;100.00;97863.94;5032673;28;20470;-54
2022/04/07 07:55:44;;;;;;;0.30;0.20;;;;;;;11.72;100.00;97858.13;5032907;28;20530;-53
2022/04/07 07:58:10;;;;;;;0.30;0.20;;;;;;;11.77;100.00;97854.16;5032885;28;20502;-55
2022/04/07 08:00:37;;;;;;;0.30;0.20;;;;;;;11.95;100.00;97851.16;5032424;28;20487;-53
2022/04/07 08:03:05;;;;;;;0.30;0.20;;;;;;;12.01;100.00;97835.56;5032556;28;20487;-54
2022/04/07 08:05:31;;;;;;;0.30;0.20;;;;;;;11.98;100.00;97830.47;5023167;28;20459;-54
2022/04/07 08:07:58;;;;;;;0.30;0.20;;;;;;;12.13;100.00;97834.66;5032670;28;20921;-54
2022/04/07 08:10:25;;;;;;;0.30;0.20;;;;;;;12.16;100.00;97839.75;5032932;28;20444;-55
2022/04/07 08:12:51;;;;;;;0.30;0.20;;;;;;;12.28;100.00;97814.03;5032536;28;20521;-53
2022/04/07 08:15:19;;;;;;;0.30;0.20;;;;;;;12.30;100.00;97804.09;5028961;28;20531;-54
2022/04/07 08:17:46;;;;;;;0.30;0.20;;;;;;;12.37;100.00;97824.00;5032447;28;20452;-53
2022/04/07 08:20:13;;;;;;;0.30;0.20;;;;;;;12.37;100.00;97799.19;5032254;28;20556;-53
2022/04/07 08:22:39;;;;;;;0.30;0.20;;;;;;;12.31;100.00;97795.16;5028143;28;20475;-55
2022/04/07 08:25:06;;;;;;;0.30;0.20;;;;;;;12.45;100.00;97784.28;5032275;28;20451;-54
2022/04/07 08:27:33;;;;;;;0.30;0.20;;;;;;;12.43;100.00;97778.22;5032281;28;20502;-55
2022/04/07 08:30:00;;;;;;;0.30;0.20;;;;;;;12.60;100.00;97779.59;5032214;28;20810;-54
2022/04/07 08:32:26;;;;;;;0.30;0.20;;;;;;;12.48;100.00;97791.22;5032575;28;20892;-55
2022/04/07 08:34:53;;;;;;;0.30;0.20;;;;;;;12.54;100.00;97792.56;5028727;28;20898;-55
2022/04/07 08:37:20;;;;;;;0.30;0.20;;;;;;;12.59;100.00;97764.56;5032161;28;20448;-54
2022/04/07 08:39:47;;;;;;;0.30;0.20;;;;;;;12.68;100.00;97776.34;5031757;28;20876;-55
2022/04/07 08:42:14;;;;;;;0.30;0.20;;;;;;;12.75;100.00;97745.59;5032096;28;20814;-54
2022/04/07 08:44:41;;;;;;;0.30;0.20;;;;;;;12.79;100.00;97741.72;5032156;28;20455;-55
2022/04/07 08:47:07;;;;;;;0.30;0.20;;;;;;;12.82;100.00;97756.63;5031972;28;20936;-54
2022/04/07 08:49:37;;;;;;;0.30;0.20;;;;;;;12.94;100.00;97731.66;5032005;28;20452;-53
2022/04/07 08:52:04;;;;;;;0.30;0.20;;;;;;;13.08;100.00;97719.88;5032570;28;20497;-55
2022/04/07 08:54:32;;;;;;;0.30;0.20;;;;;;;13.22;100.00;97717.84;5032278;28;20476;-55
2022/04/07 08:56:59;;;;;;;0.30;0.20;;;;;;;13.34;100.00;97711.50;5032433;28;20448;-54
2022/04/07 08:59:31;;;;;;;0.30;0.20;;;;;;;13.38;100.00;97712.09;5032346;28;20481;-54
2022/04/07 09:02:02;;;;;;;0.30;0.20;;;;;;;13.36;100.00;97695.38;5031887;28;20455;-54
2022/04/07 09:04:30;;;;;;;0.30;0.20;;;;;;;13.39;100.00;97689.78;5030156;28;20447;-54
2022/04/07 09:06:58;;;;;;;0.30;0.20;;;;;;;13.49;100.00;97695.22;5025178;28;20443;-55
2022/04/07 09:09:24;;;;;;;0.30;0.20;;;;;;;13.59;100.00;97693.50;5031983;28;20960;-55
2022/04/07 09:11:55;;;;;;;0.30;0.20;;;;;;;13.74;100.00;97696.72;5032264;28;20851;-54
2022/04/07 09:14:22;;;;;;;0.30;0.20;;;;;;;13.75;100.00;97701.06;5009742;28;20458;-55
2022/04/07 09:16:56;;;;;;;0.30;0.20;;;;;;;13.61;100.00;97687.06;5032254;28;20539;-55
2022/04/07 09:19:23;;;;;;;0.30;0.20;;;;;;;13.86;100.00;97688.53;5035909;28;20447;-54
2022/04/07 09:22:08;;;;;;;0.30;0.20;;;;;;;14.01;100.00;97681.06;5031307;28;20516;-54
2022/04/07 09:24:36;;;;;;;0.30;0.20;;;;;;;13.89;100.00;97690.94;5035421;28;20448;-54
2022/04/07 09:27:11;;;;;;;0.30;0.20;;;;;;;14.03;100.00;97683.59;5035274;28;20452;-55
2022/04/07 09:29:43;;;;;;;0.30;0.20;;;;;;;14.12;99.89;97678.31;5035903;28;20443;-55
2022/04/07 09:32:45;;;;;;;0.30;0.20;;;;;;;14.29;99.83;97662.66;5017933;28;20451;-55
2022/04/07 09:35:12;;;;;;;0.30;0.20;;;;;;;14.47;98.87;97669.13;5033152;28;20598;-54
2022/04/07 09:37:40;;;;;;;0.30;0.20;;;;;;;14.43;100.00;97678.38;5035513;28;20511;-54
2022/04/07 09:40:12;;;;;;;0.30;0.20;;;;;;;14.41;100.00;97646.44;5009477;28;20479;-55
2022/04/07 09:42:43;;;;;;;0.30;0.20;;;;;;;14.36;99.28;97670.00;5035457;28;20471;-56
2022/04/07 09:45:12;;;;;;;0.30;0.20;;;;;;;14.41;100.00;97654.44;5035803;28;20447;-55
2022/04/07 09:47:40;;;;;;;0.30;0.20;;;;;;;14.21;100.00;97648.13;5035358;28;20525;-53
2022/04/07 09:50:10;;;;;;;0.30;0.20;;;;;;;14.20;100.00;97646.44;5035631;28;20451;-55
2022/04/07 09:52:40;;;;;;;0.30;0.20;;;;;;;14.09;100.00;97627.81;5035132;28;20467;-55
2022/04/07 09:55:08;;;;;;;0.30;0.20;;;;;;;14.34;100.00;97593.63;5035369;28;20847;-55
2022/04/07 09:57:36;;;;;;;0.30;0.20;;;;;;;14.35;100.00;97612.19;5034861;28;21014;-54
2022/04/07 10:00:05;;;;;;;0.30;0.20;;;;;;;14.70;100.00;97621.69;5034831;28;20513;-53
2022/04/07 10:02:32;;;;;;;0.30;0.20;;;;;;;14.73;99.20;97605.34;5034541;28;20483;-55
2022/04/07 10:05:01;;;;;;;0.30;0.20;;;;;;;15.22;96.85;97585.75;5029104;28;20531;-55
2022/04/07 10:07:28;;;;;;;0.30;0.20;;;;;;;15.41;95.67;97568.84;5033372;28;20447;-55
2022/04/07 10:09:55;;;;;;;0.30;0.20;;;;;;;15.07;95.84;97579.09;5035291;28;20487;-55
2022/04/07 10:12:24;;;;;;;0.30;0.20;;;;;;;15.49;95.38;97577.03;5034866;28;20468;-55
2022/04/07 10:14:51;;;;;;;0.30;0.20;;;;;;;15.64;94.69;97580.16;5032292;28;20444;-55
2022/04/07 10:17:17;;;;;;;0.30;0.20;;;;;;;15.63;94.12;97552.53;5050668;28;20451;-55
2022/04/07 10:19:51;;;;;;;0.30;0.20;;;;;;;15.43;93.93;97560.66;5034722;28;20452;-55
2022/04/07 10:22:38;;;;;;;0.50;0.50;;;;;;;15.57;95.16;97563.75;5031903;28;20891;-54
2022/04/07 10:25:06;;;;;;;0.30;0.20;;;;;;;15.50;94.73;97551.09;5034365;28;20448;-55
2022/04/07 10:27:40;;;;;;;0.30;0.20;;;;;;;15.51;95.37;97555.47;5017051;28;20789;-55
2022/04/07 10:30:12;;;;;;;0.30;0.20;;;;;;;15.41;95.65;97539.41;5033498;28;20494;-56
2022/04/07 10:32:43;;;;;;;0.30;0.20;;;;;;;15.62;95.28;97548.16;5034627;28;20586;-56
2022/04/07 10:35:11;;;;;;;0.30;0.20;;;;;;;15.57;94.46;97512.03;5032795;28;20513;-55
2022/04/07 10:37:46;;;;;;;0.30;0.20;;;;;;;15.53;94.72;97524.88;5034192;28;20460;-55
2022/04/07 10:40:37;;;;;;;0.30;0.20;;;;;;;15.37;94.81;97529.97;5010370;28;20447;-54
2022/04/07 10:43:03;;;;;;;0.30;0.20;;;;;;;15.32;95.45;97513.47;5034540;28;20542;-55
2022/04/07 10:45:34;;;;;;;0.30;0.20;;;;;;;15.29;96.17;97516.44;5034180;28;21006;-55
2022/04/07 10:48:21;;;;;;;0.30;0.20;;;;;;;15.28;99.81;97509.41;5033976;28;20458;-54
2022/04/07 10:50:53;;;;;;;0.30;0.20;;;;;;;15.36;100.00;97499.69;5034396;28;20448;-55
2022/04/07 10:53:31;;;;;;;0.30;0.20;;;;;;;15.34;96.82;97498.13;5034572;28;20468;-55
2022/04/07 10:56:13;;;;;;;0.30;0.20;;;;;;;15.38;96.34;97462.06;5034485;28;20494;-55
2022/04/07 10:58:40;;;;;;;0.30;0.20;;;;;;;15.58;95.68;97466.38;5033011;28;20932;-55
2022/04/07 11:01:12;;;;;;;0.30;0.20;;;;;;;15.79;94.20;97479.63;5033777;28;20487;-56
2022/04/07 11:03:41;;;;;;;0.30;0.20;;;;;;;15.67;93.99;97486.13;5033945;28;21011;-55
2022/04/07 11:06:10;;;;;;;0.30;0.20;;;;;;;15.66;94.90;97473.72;5024925;28;20757;-56
2022/04/07 11:08:37;;;;;;;0.30;0.20;;;;;;;15.98;94.41;97479.53;5033688;28;20451;-56
2022/04/07 11:11:04;;;;;;;0.30;0.20;;;;;;;15.91;94.09;97448.97;5032689;28;20455;-56
2022/04/07 11:13:45;;;;;;;0.30;0.20;;;;;;;16.05;94.77;97458.38;5030854;28;20476;-55
2022/04/07 11:16:30;;;;;;;0.30;0.20;;;;;;;16.29;93.42;97471.22;5033752;28;20448;-54
2022/04/07 11:19:21;;;;;;;0.30;0.20;;;;;;;16.18;92.81;97477.63;5033656;28;20874;-56
2022/04/07 11:21:52;;;;;;;0.30;0.20;;;;;;;16.13;93.64;97485.25;5029175;28;20493;-55
2022/04/07 11:24:28;;;;;;;0.30;0.20;;;;;;;16.36;94.86;97466.13;5033474;28;20833;-56
2022/04/07 11:26:54;;;;;;;0.30;0.20;;;;;;;15.86;100.00;97471.81;5033518;28;20451;-56
2022/04/07 11:29:34;;;;;;;0.30;0.20;;;;;;;15.81;100.00;97463.41;5033492;28;20451;-56
2022/04/07 11:32:09;;;;;;;0.30;0.20;;;;;;;15.44;100.00;97476.69;5033177;28;20962;-55